Time;durP1;ratioP1;P1;durP2;ratioP2;P2;SDS_P1;SDS_P2;PMS_P1;PMS_P2;Temp;Humidity;BMP_temperature;BMP_pressure;BME280_temperature;BME280_humidity;BME280_pressure;Samples;Min_cycle;Max_cycle;Signal;HPM_P1;HPM_P2
2023/10/25 00:01:05;;;;;;;;;1.67;1.67;;;;;;;;5081947;28;45332;-75
2023/10/25 00:03:30;;;;;;;;;2.00;2.00;;;;;;;;5081622;28;45461;-74
2023/10/25 00:05:56;;;;;;;;;3.00;2.67;;;;;;;;5079976;28;47536;-74
2023/10/25 00:08:21;;;;;;;;;3.00;3.00;;;;;;;;5081928;28;45318;-74
2023/10/25 00:10:46;;;;;;;;;1.00;1.00;;;;;;;;5082116;28;45302;-74
2023/10/25 00:13:11;;;;;;;;;0.33;0.33;;;;;;;;5081964;28;45241;-75
2023/10/25 00:15:36;;;;;;;;;2.00;2.00;;;;;;;;5080168;28;47076;-74
2023/10/25 00:18:01;;;;;;;;;2.33;2.33;;;;;;;;5081763;28;45208;-74
2023/10/25 00:20:27;;;;;;;;;2.33;1.00;;;;;;;;5081706;28;45338;-74
2023/10/25 00:22:52;;;;;;;;;4.00;2.00;;;;;;;;5081364;28;45489;-74
2023/10/25 00:25:17;;;;;;;;;2.00;2.00;;;;;;;;5080993;28;46118;-75
2023/10/25 00:27:42;;;;;;;;;2.00;0.00;;;;;;;;5079557;28;45794;-75
2023/10/25 00:30:08;;;;;;;;;1.00;1.00;;;;;;;;5095393;27;45426;-75
2023/10/25 00:32:33;;;;;;;;;1.00;1.00;;;;;;;;5100460;27;47411;-75
2023/10/25 00:34:58;;;;;;;;;2.00;2.00;;;;;;;;5101298;27;45323;-75
2023/10/25 00:37:23;;;;;;;;;2.00;2.00;;;;;;;;5101841;27;45315;-75
2023/10/25 00:39:49;;;;;;;;;1.67;1.67;;;;;;;;5102006;27;45319;-75
2023/10/25 00:42:14;;;;;;;;;4.00;1.00;;;;;;;;5101791;27;45390;-75
2023/10/25 00:44:39;;;;;;;;;1.67;1.67;;;;;;;;5101573;27;46203;-75
2023/10/25 00:47:04;;;;;;;;;2.33;2.00;;;;;;;;5085557;27;45245;-75
2023/10/25 00:49:30;;;;;;;;;1.67;1.67;;;;;;;;5081392;28;45259;-75
2023/10/25 00:51:55;;;;;;;;;3.00;2.33;;;;;;;;5080932;28;45390;-76
2023/10/25 00:54:21;;;;;;;;;2.00;2.00;;;;;;;;5079909;28;45288;-75
2023/10/25 00:56:47;;;;;;;;;3.00;2.00;;;;;;;;5081137;28;45316;-75
2023/10/25 00:59:12;;;;;;;;;3.67;3.67;;;;;;;;5079927;28;45496;-75
2023/10/25 01:01:40;;;;;;;;;2.00;2.00;;;;;;;;5080871;28;45465;-75
2023/10/25 01:04:05;;;;;;;;;3.33;3.33;;;;;;;;5080900;28;45365;-75
2023/10/25 01:06:31;;;;;;;;;2.33;2.33;;;;;;;;5080643;28;45287;-75
2023/10/25 01:08:56;;;;;;;;;3.00;3.00;;;;;;;;5081212;28;45308;-75
2023/10/25 01:11:21;;;;;;;;;2.33;2.33;;;;;;;;5081039;28;45362;-75
2023/10/25 01:13:46;;;;;;;;;3.33;1.33;;;;;;;;5080676;28;45600;-75
2023/10/25 01:16:11;;;;;;;;;1.33;1.33;;;;;;;;5079737;28;45328;-75
2023/10/25 01:18:37;;;;;;;;;1.33;1.33;;;;;;;;5079453;28;45265;-75
2023/10/25 01:21:02;;;;;;;;;2.33;2.33;;;;;;;;5079379;28;45882;-74
2023/10/25 01:23:27;;;;;;;;;2.00;2.00;;;;;;;;5080742;28;45645;-74
2023/10/25 01:25:52;;;;;;;;;3.00;3.00;;;;;;;;5080694;28;45377;-75
2023/10/25 01:28:18;;;;;;;;;3.33;3.33;;;;;;;;5079433;27;45315;-74
2023/10/25 01:30:43;;;;;;;;;3.67;1.67;;;;;;;;5100875;27;45346;-75
2023/10/25 01:33:08;;;;;;;;;2.00;2.00;;;;;;;;5101040;27;46308;-75
2023/10/25 01:35:34;;;;;;;;;3.67;1.67;;;;;;;;5100745;27;45368;-75
2023/10/25 01:38:00;;;;;;;;;1.67;1.33;;;;;;;;5099789;27;45357;-74
2023/10/25 01:40:25;;;;;;;;;2.00;2.00;;;;;;;;5100842;27;45370;-75
2023/10/25 01:42:54;;;;;;;;;4.00;2.00;;;;;;;;5099344;27;47227;-74
2023/10/25 01:45:21;;;;;;;;;1.33;1.33;;;;;;;;5099601;27;45344;-74
2023/10/25 01:47:46;;;;;;;;;2.00;2.00;;;;;;;;5100802;27;46055;-75
2023/10/25 01:50:11;;;;;;;;;1.00;1.00;;;;;;;;5100769;27;45514;-74
2023/10/25 01:52:36;;;;;;;;;2.33;2.33;;;;;;;;5100549;27;45504;-75
2023/10/25 01:55:02;;;;;;;;;0.33;0.33;;;;;;;;5100679;27;45260;-74
2023/10/25 01:57:27;;;;;;;;;2.00;2.00;;;;;;;;5100934;27;45700;-73
2023/10/25 01:59:52;;;;;;;;;1.33;0.33;;;;;;;;5098953;27;45902;-75
2023/10/25 02:02:17;;;;;;;;;1.33;1.33;;;;;;;;5100602;27;46623;-74
2023/10/25 02:04:43;;;;;;;;;1.33;1.33;;;;;;;;5100464;27;45314;-75
2023/10/25 02:07:08;;;;;;;;;2.33;2.33;;;;;;;;5099164;27;45346;-75
2023/10/25 02:09:33;;;;;;;;;2.33;2.33;;;;;;;;5100452;27;45463;-74
2023/10/25 02:11:58;;;;;;;;;1.33;1.33;;;;;;;;5100323;27;45595;-74
2023/10/25 02:14:23;;;;;;;;;1.33;1.33;;;;;;;;5100409;27;45348;-75
2023/10/25 02:16:49;;;;;;;;;1.00;1.00;;;;;;;;5087553;27;45449;-75
2023/10/25 02:19:18;;;;;;;;;1.33;1.33;;;;;;;;5078414;28;46408;-74
2023/10/25 02:21:43;;;;;;;;;3.67;2.33;;;;;;;;5079204;28;46005;-75
2023/10/25 02:24:10;;;;;;;;;1.33;1.33;;;;;;;;5077566;28;45245;-75
2023/10/25 02:26:36;;;;;;;;;2.33;1.33;;;;;;;;5078682;28;45305;-74
2023/10/25 02:29:01;;;;;;;;;2.33;1.67;;;;;;;;5085895;27;45254;-75
2023/10/25 02:31:26;;;;;;;;;0.33;0.33;;;;;;;;5100034;27;45336;-75
2023/10/25 02:33:51;;;;;;;;;1.33;1.33;;;;;;;;5100214;27;45195;-74
2023/10/25 02:36:16;;;;;;;;;0.33;0.33;;;;;;;;5100131;27;45565;-73
2023/10/25 02:38:42;;;;;;;;;1.33;1.33;;;;;;;;5098732;27;46366;-74
2023/10/25 02:41:07;;;;;;;;;2.00;1.33;;;;;;;;5098869;27;45372;-74
2023/10/25 02:43:34;;;;;;;;;0.33;0.33;;;;;;;;5100115;27;45303;-75
2023/10/25 02:46:03;;;;;;;;;1.00;1.00;;;;;;;;5099914;27;45325;-75
2023/10/25 02:48:28;;;;;;;;;1.67;1.00;;;;;;;;5100036;27;45199;-75
2023/10/25 02:50:54;;;;;;;;;1.50;1.50;;;;;;;;5098556;27;48065;-75
2023/10/25 02:53:19;;;;;;;;;1.00;1.00;;;;;;;;5099942;27;45316;-75
2023/10/25 02:55:47;;;;;;;;;1.67;1.00;;;;;;;;5098587;27;45284;-74
2023/10/25 02:58:12;;;;;;;;;1.00;1.00;;;;;;;;5103253;27;45537;-74
2023/10/25 03:00:37;;;;;;;;;3.00;3.00;;;;;;;;5103182;27;46169;-75
2023/10/25 03:03:03;;;;;;;;;0.33;0.33;;;;;;;;5102136;27;45399;-74
2023/10/25 03:05:28;;;;;;;;;0.75;0.75;;;;;;;;5103223;27;45432;-74
2023/10/25 03:07:53;;;;;;;;;0.25;0.25;;;;;;;;5103367;27;45306;-75
2023/10/25 03:10:20;;;;;;;;;1.00;1.00;;;;;;;;5103260;27;45298;-75
2023/10/25 03:12:45;;;;;;;;;0.33;0.33;;;;;;;;5103215;27;45263;-75
2023/10/25 03:15:10;;;;;;;;;1.33;0.67;;;;;;;;5103255;27;45440;-74
2023/10/25 03:17:36;;;;;;;;;1.33;1.00;;;;;;;;5103151;27;45491;-75
2023/10/25 03:20:02;;;;;;;;;1.00;1.00;;;;;;;;5101605;27;47499;-75
2023/10/25 03:22:28;;;;;;;;;1.00;1.00;;;;;;;;5103159;27;45241;-74
2023/10/25 03:24:53;;;;;;;;;0.33;0.33;;;;;;;;5103281;27;45287;-75
2023/10/25 03:27:19;;;;;;;;;1.00;1.00;;;;;;;;5103045;27;45477;-74
2023/10/25 03:29:45;;;;;;;;;1.67;1.67;;;;;;;;5088939;27;47199;-75
2023/10/25 03:32:10;;;;;;;;;1.00;1.00;;;;;;;;5081449;28;45330;-75
2023/10/25 03:34:36;;;;;;;;;0.67;0.67;;;;;;;;5082453;28;45338;-74
2023/10/25 03:37:01;;;;;;;;;1.00;1.00;;;;;;;;5082345;28;45233;-75
2023/10/25 03:39:26;;;;;;;;;0.00;0.00;;;;;;;;5082410;28;45382;-75
2023/10/25 03:41:51;;;;;;;;;0.33;0.33;;;;;;;;5082368;28;45181;-75
2023/10/25 03:44:16;;;;;;;;;0.67;0.67;;;;;;;;5081205;28;45335;-75
2023/10/25 03:46:42;;;;;;;;;2.00;2.00;;;;;;;;5079936;28;46183;-75
2023/10/25 03:49:07;;;;;;;;;1.67;1.67;;;;;;;;5082128;28;45404;-75
2023/10/25 03:51:32;;;;;;;;;0.67;0.67;;;;;;;;5080704;28;45512;-75
2023/10/25 03:53:57;;;;;;;;;0.33;0.33;;;;;;;;5079919;28;45408;-76
2023/10/25 03:56:22;;;;;;;;;1.00;1.00;;;;;;;;5082060;28;45406;-75
2023/10/25 03:58:48;;;;;;;;;1.00;1.00;;;;;;;;5080757;28;47373;-75
2023/10/25 04:01:13;;;;;;;;;1.00;1.00;;;;;;;;5081959;28;45337;-75
2023/10/25 04:03:38;;;;;;;;;1.33;0.00;;;;;;;;5082364;28;45341;-75
2023/10/25 04:06:04;;;;;;;;;1.00;1.00;;;;;;;;5081533;28;45532;-75
2023/10/25 04:08:30;;;;;;;;;3.00;1.00;;;;;;;;5080710;28;45575;-75
2023/10/25 04:10:56;;;;;;;;;1.00;1.00;;;;;;;;5081945;28;45294;-75
2023/10/25 04:13:21;;;;;;;;;0.33;0.33;;;;;;;;5080649;28;45312;-75
2023/10/25 04:15:56;;;;;;;;;0.67;0.67;;;;;;;;5081410;28;45406;-75
2023/10/25 04:18:22;;;;;;;;;1.00;1.00;;;;;;;;5081517;28;45636;-75
2023/10/25 04:20:47;;;;;;;;;1.00;1.00;;;;;;;;5081615;28;45739;-75
2023/10/25 04:23:12;;;;;;;;;1.67;1.00;;;;;;;;5082026;28;45463;-75
2023/10/25 04:25:37;;;;;;;;;0.00;0.00;;;;;;;;5081587;28;45487;-75
2023/10/25 04:28:02;;;;;;;;;0.00;0.00;;;;;;;;5081535;28;45191;-75
2023/10/25 04:30:28;;;;;;;;;0.00;0.00;;;;;;;;5099660;27;45193;-75
2023/10/25 04:32:53;;;;;;;;;0.75;0.75;;;;;;;;5102118;27;45404;-75
2023/10/25 04:35:18;;;;;;;;;0.00;0.00;;;;;;;;5101252;27;45659;-75
2023/10/25 04:37:43;;;;;;;;;1.00;0.00;;;;;;;;5081266;28;45499;-75
2023/10/25 04:40:09;;;;;;;;;0.00;0.00;;;;;;;;5080820;28;45292;-75
2023/10/25 04:42:34;;;;;;;;;1.00;1.00;;;;;;;;5081458;28;45195;-75
2023/10/25 04:44:59;;;;;;;;;0.00;0.00;;;;;;;;5080769;28;45225;-75
2023/10/25 04:47:24;;;;;;;;;0.67;0.67;;;;;;;;5081104;28;45333;-75
2023/10/25 04:49:49;;;;;;;;;0.00;0.00;;;;;;;;5079392;28;45256;-76
2023/10/25 04:52:16;;;;;;;;;0.00;0.00;;;;;;;;5081290;28;45402;-75
2023/10/25 04:54:42;;;;;;;;;0.75;0.75;;;;;;;;5081099;28;45488;-74
2023/10/25 04:57:07;;;;;;;;;1.00;1.00;;;;;;;;5081048;28;45653;-75
2023/10/25 04:59:32;;;;;;;;;0.00;0.00;;;;;;;;5081020;28;45560;-74
2023/10/25 05:01:58;;;;;;;;;1.00;1.00;;;;;;;;5080922;28;45268;-74
2023/10/25 05:04:23;;;;;;;;;0.33;0.00;;;;;;;;5080578;28;45323;-75
2023/10/25 05:06:48;;;;;;;;;1.00;0.00;;;;;;;;5080869;28;46213;-74
2023/10/25 05:09:13;;;;;;;;;1.00;1.00;;;;;;;;5066631;28;45521;-75
2023/10/25 05:11:41;;;;;;;;;0.25;0.25;;;;;;;;5060846;28;45321;-75
2023/10/25 05:14:06;;;;;;;;;2.00;1.00;;;;;;;;5060461;28;45260;-74
2023/10/25 05:16:31;;;;;;;;;0.00;0.00;;;;;;;;5060429;28;45559;-74
2023/10/25 05:18:57;;;;;;;;;2.00;1.00;;;;;;;;5062750;28;45295;-75
2023/10/25 05:21:25;;;;;;;;;0.50;0.50;;;;;;;;5064336;28;45362;-74
2023/10/25 05:23:51;;;;;;;;;1.67;1.00;;;;;;;;5068249;28;45329;-76
2023/10/25 05:26:17;;;;;;;;;0.75;0.75;;;;;;;;5077222;27;46024;-75
2023/10/25 05:28:42;;;;;;;;;0.25;0.25;;;;;;;;5083990;27;45299;-75
2023/10/25 05:31:09;;;;;;;;;1.00;1.00;;;;;;;;5099544;27;45434;-75
2023/10/25 05:33:34;;;;;;;;;2.25;2.00;;;;;;;;5100980;27;45514;-76
2023/10/25 05:36:00;;;;;;;;;1.00;1.00;;;;;;;;5099251;27;48104;-75
2023/10/25 05:38:25;;;;;;;;;1.25;1.25;;;;;;;;5100882;27;45283;-75
2023/10/25 05:40:51;;;;;;;;;1.00;1.00;;;;;;;;5101089;27;45308;-75
2023/10/25 05:43:19;;;;;;;;;1.00;0.75;;;;;;;;5100817;27;45275;-76
2023/10/25 05:45:44;;;;;;;;;1.00;1.00;;;;;;;;5100474;27;46448;-77
2023/10/25 05:48:11;;;;;;;;;1.00;1.00;;;;;;;;5100432;27;45321;-76
2023/10/25 05:50:37;;;;;;;;;1.00;0.25;;;;;;;;5100814;27;45263;-76
2023/10/25 05:53:02;;;;;;;;;0.00;0.00;;;;;;;;5099289;27;45976;-77
2023/10/25 05:55:27;;;;;;;;;0.00;0.00;;;;;;;;5068571;27;47657;-75
2023/10/25 05:57:53;;;;;;;;;0.00;0.00;;;;;;;;5070009;28;45418;-75
2023/10/25 06:00:18;;;;;;;;;0.00;0.00;;;;;;;;5059128;28;45277;-75
2023/10/25 06:02:44;;;;;;;;;1.00;1.00;;;;;;;;5059801;28;45353;-75
2023/10/25 06:05:11;;;;;;;;;0.00;0.00;;;;;;;;5059694;28;45465;-76
2023/10/25 06:07:37;;;;;;;;;0.00;0.00;;;;;;;;5059767;28;45328;-75
2023/10/25 06:10:02;;;;;;;;;1.00;0.00;;;;;;;;5058615;28;45313;-75
2023/10/25 06:12:28;;;;;;;;;2.25;0.75;;;;;;;;5059678;28;45263;-76
2023/10/25 06:14:53;;;;;;;;;0.00;0.00;;;;;;;;5065073;28;47507;-76
2023/10/25 06:17:18;;;;;;;;;0.00;0.00;;;;;;;;5080217;28;45366;-78
2023/10/25 06:19:43;;;;;;;;;0.50;0.00;;;;;;;;5081031;28;45318;-75
2023/10/25 06:22:08;;;;;;;;;0.00;0.00;;;;;;;;5079788;28;45456;-74
2023/10/25 06:24:33;;;;;;;;;1.00;0.00;;;;;;;;5070669;27;46478;-74
2023/10/25 06:26:59;;;;;;;;;1.50;1.00;;;;;;;;5071486;28;45404;-74
2023/10/25 06:29:24;;;;;;;;;0.50;0.50;;;;;;;;5077720;27;45319;-74
2023/10/25 06:31:52;;;;;;;;;0.50;0.50;;;;;;;;5069553;28;45252;-74
2023/10/25 06:34:18;;;;;;;;;0.25;0.25;;;;;;;;5069374;28;48260;-73
2023/10/25 06:36:44;;;;;;;;;1.25;1.25;;;;;;;;5065521;28;45492;-75
2023/10/25 06:39:09;;;;;;;;;1.75;1.00;;;;;;;;5074118;28;45445;-75
2023/10/25 06:41:35;;;;;;;;;0.00;0.00;;;;;;;;5065613;28;45333;-74
2023/10/25 06:44:00;;;;;;;;;0.00;0.00;;;;;;;;5063747;28;45376;-74
2023/10/25 06:46:25;;;;;;;;;0.00;0.00;;;;;;;;5064249;28;45284;-75
2023/10/25 06:48:52;;;;;;;;;0.00;0.00;;;;;;;;5063136;28;45817;-74
2023/10/25 06:51:18;;;;;;;;;0.00;0.00;;;;;;;;5063646;28;45314;-75
2023/10/25 06:53:44;;;;;;;;;0.00;0.00;;;;;;;;5062733;28;46118;-75
2023/10/25 06:56:09;;;;;;;;;0.00;0.00;;;;;;;;5074874;27;45468;-74
2023/10/25 06:58:34;;;;;;;;;0.00;0.00;;;;;;;;5081930;28;45334;-74
2023/10/25 07:01:01;;;;;;;;;0.00;0.00;;;;;;;;5082492;28;45288;-75
2023/10/25 07:03:30;;;;;;;;;1.00;1.00;;;;;;;;5072929;28;46634;-74
2023/10/25 07:05:55;;;;;;;;;0.00;0.00;;;;;;;;5064939;28;45384;-75
2023/10/25 07:08:21;;;;;;;;;3.50;1.00;;;;;;;;5061373;28;45270;-74
2023/10/25 07:10:46;;;;;;;;;2.00;1.00;;;;;;;;5062242;28;45358;-75
2023/10/25 07:13:12;;;;;;;;;2.00;0.75;;;;;;;;5061216;28;47928;-75
2023/10/25 07:15:37;;;;;;;;;1.00;1.00;;;;;;;;5062252;28;45552;-75
2023/10/25 07:18:02;;;;;;;;;0.00;0.00;;;;;;;;5062959;28;45593;-75
2023/10/25 07:20:27;;;;;;;;;0.00;0.00;;;;;;;;5062511;28;45362;-76
2023/10/25 07:22:53;;;;;;;;;1.00;1.00;;;;;;;;5062318;28;45269;-75
2023/10/25 07:25:18;;;;;;;;;2.00;1.00;;;;;;;;5066495;28;45288;-75
2023/10/25 07:27:43;;;;;;;;;1.00;0.00;;;;;;;;5076748;28;45519;-74
2023/10/25 07:30:08;;;;;;;;;2.00;1.00;;;;;;;;5099626;27;45502;-75
2023/10/25 07:32:35;;;;;;;;;0.00;0.00;;;;;;;;5103632;27;45317;-75
2023/10/25 07:35:00;;;;;;;;;1.00;1.00;;;;;;;;5101539;27;45298;-75
2023/10/25 07:37:26;;;;;;;;;1.00;1.00;;;;;;;;5101677;27;45315;-74
2023/10/25 07:39:51;;;;;;;;;1.50;1.50;;;;;;;;5085328;27;45624;-75
2023/10/25 07:42:16;;;;;;;;;1.00;1.00;;;;;;;;5061971;28;45434;-73
2023/10/25 07:44:41;;;;;;;;;0.67;0.67;;;;;;;;5061914;27;45297;-74
2023/10/25 07:47:06;;;;;;;;;1.00;1.00;;;;;;;;5062314;28;45485;-73
2023/10/25 07:49:35;;;;;;;;;3.33;1.67;;;;;;;;5067708;28;45596;-73
2023/10/25 07:52:00;;;;;;;;;4.00;2.00;;;;;;;;5066667;28;48598;-74
2023/10/25 07:54:27;;;;;;;;;2.00;2.00;;;;;;;;5071912;28;46438;-75
2023/10/25 07:56:52;;;;;;;;;3.67;3.67;;;;;;;;5082131;28;45408;-72
2023/10/25 07:59:17;;;;;;;;;3.67;3.67;;;;;;;;5081446;27;45340;-73
2023/10/25 08:01:42;;;;;;;;;2.75;2.75;;;;;;;;5079367;27;46304;-74
2023/10/25 08:04:08;;;;;;;;;4.00;3.00;;;;;;;;5081290;27;45628;-74
2023/10/25 08:06:34;;;;;;;;;2.00;2.00;;;;;;;;5081778;27;45412;-74
2023/10/25 08:08:59;;;;;;;;;2.33;2.00;;;;;;;;5081997;27;45252;-74
2023/10/25 08:11:24;;;;;;;;;2.00;2.00;;;;;;;;5081882;28;46396;-75
2023/10/25 08:13:49;;;;;;;;;3.00;3.00;;;;;;;;5081809;27;45337;-74
2023/10/25 08:16:14;;;;;;;;;5.00;3.33;;;;;;;;5081357;27;45346;-74
2023/10/25 08:18:40;;;;;;;;;4.00;4.00;;;;;;;;5081687;27;45299;-77
2023/10/25 08:21:11;;;;;;;;;4.00;4.00;;;;;;;;5080320;28;47188;-75
2023/10/25 08:23:37;;;;;;;;;2.00;2.00;;;;;;;;5081800;27;45320;-74
2023/10/25 08:26:02;;;;;;;;;3.67;2.67;;;;;;;;5081694;27;45330;-74
2023/10/25 08:28:27;;;;;;;;;3.67;2.33;;;;;;;;5081491;28;45310;-75
2023/10/25 08:30:53;;;;;;;;;3.00;3.00;;;;;;;;5081328;28;46502;-74
2023/10/25 08:33:18;;;;;;;;;3.00;3.00;;;;;;;;5078327;28;45394;-74
2023/10/25 08:35:43;;;;;;;;;1.25;1.25;;;;;;;;5070199;28;45668;-74
2023/10/25 08:38:09;;;;;;;;;3.67;3.67;;;;;;;;5071591;28;45391;-74
2023/10/25 08:40:34;;;;;;;;;1.00;1.00;;;;;;;;5068487;28;47581;-74
2023/10/25 08:42:59;;;;;;;;;0.75;0.00;;;;;;;;5070833;28;45410;-73
2023/10/25 08:45:25;;;;;;;;;1.25;1.25;;;;;;;;5071164;28;45378;-74
2023/10/25 08:47:50;;;;;;;;;0.00;0.00;;;;;;;;5069203;28;45476;-75
2023/10/25 08:50:19;;;;;;;;;5.33;1.33;;;;;;;;5070829;28;45467;-75
2023/10/25 08:52:48;;;;;;;;;4.00;2.67;;;;;;;;5063400;28;45298;-74
2023/10/25 08:55:13;;;;;;;;;3.00;1.00;;;;;;;;5058928;28;45404;-74
2023/10/25 08:57:38;;;;;;;;;1.00;1.00;;;;;;;;5060893;28;45289;-74
2023/10/25 09:00:07;;;;;;;;;2.00;2.00;;;;;;;;5060530;28;45644;-74
2023/10/25 09:02:36;;;;;;;;;4.00;2.75;;;;;;;;5059289;28;45371;-74
2023/10/25 09:05:08;;;;;;;;;2.00;2.00;;;;;;;;5060667;28;45309;-75
2023/10/25 09:07:36;;;;;;;;;1.00;1.00;;;;;;;;5060144;28;45350;-75
2023/10/25 09:10:11;;;;;;;;;2.75;1.00;;;;;;;;5059014;28;47130;-74
2023/10/25 09:12:36;;;;;;;;;1.50;1.50;;;;;;;;5060371;28;45335;-74
2023/10/25 09:15:03;;;;;;;;;2.00;2.00;;;;;;;;5079991;28;45445;-74
2023/10/25 09:17:30;;;;;;;;;1.00;1.00;;;;;;;;5080455;28;45474;-73
2023/10/25 09:19:55;;;;;;;;;3.33;3.33;;;;;;;;5080584;28;45430;-74
2023/10/25 09:22:25;;;;;;;;;1.50;0.75;;;;;;;;5080458;27;45300;-73
2023/10/25 09:24:51;;;;;;;;;1.00;1.00;;;;;;;;5080473;28;45361;-74
2023/10/25 09:27:17;;;;;;;;;1.00;1.00;;;;;;;;5080450;28;45354;-74
2023/10/25 09:29:42;;;;;;;;;1.67;1.00;;;;;;;;5089799;27;48491;-75
2023/10/25 09:32:08;;;;;;;;;1.25;1.25;;;;;;;;5101014;27;45353;-74
2023/10/25 09:34:39;;;;;;;;;1.00;1.00;;;;;;;;5101063;27;45302;-74
2023/10/25 09:37:04;;;;;;;;;0.67;0.67;;;;;;;;5100873;27;45539;-75
2023/10/25 09:39:32;;;;;;;;;3.00;1.00;;;;;;;;5100953;27;45262;-74
2023/10/25 09:41:59;;;;;;;;;2.50;2.50;;;;;;;;5100772;27;45349;-73
2023/10/25 09:44:28;;;;;;;;;3.75;2.75;;;;;;;;5100951;27;45324;-73
2023/10/25 09:46:55;;;;;;;;;1.00;1.00;;;;;;;;5099005;27;46112;-74
2023/10/25 09:49:22;;;;;;;;;2.67;2.67;;;;;;;;5100645;27;45358;-74
2023/10/25 09:52:01;;;;;;;;;2.00;2.00;;;;;;;;5097646;27;45365;-73
2023/10/25 09:54:33;;;;;;;;;1.33;0.67;;;;;;;;5080409;28;45302;-74
2023/10/25 09:56:59;;;;;;;;;1.00;1.00;;;;;;;;5080156;28;45331;-73
2023/10/25 09:59:25;;;;;;;;;2.33;2.00;;;;;;;;5072232;28;46965;-76
2023/10/25 10:01:51;;;;;;;;;1.00;1.00;;;;;;;;5067196;28;45404;-74
2023/10/25 10:04:16;;;;;;;;;0.00;0.00;;;;;;;;5064102;28;45320;-74
2023/10/25 10:06:50;;;;;;;;;1.33;1.33;;;;;;;;5058425;28;45673;-75
2023/10/25 10:09:34;;;;;;;;;0.33;0.33;;;;;;;;5059558;28;45532;-75
2023/10/25 10:12:03;;;;;;;;;1.00;1.00;;;;;;;;5059681;28;45326;-75
2023/10/25 10:14:34;;;;;;;;;3.33;2.33;;;;;;;;5058147;28;45312;-75
2023/10/25 10:17:14;;;;;;;;;4.00;4.00;;;;;;;;5059517;28;45371;-75
2023/10/25 10:19:40;;;;;;;;;2.00;2.00;;;;;;;;5059642;28;46172;-75
2023/10/25 10:22:07;;;;;;;;;2.00;2.00;;;;;;;;5059441;28;45302;-75
2023/10/25 10:24:41;;;;;;;;;1.00;1.00;;;;;;;;5059767;28;45336;-75
2023/10/25 10:27:06;;;;;;;;;3.00;3.00;;;;;;;;5059425;28;45408;-75
2023/10/25 10:29:31;;;;;;;;;5.33;3.33;;;;;;;;5078472;27;47144;-75
2023/10/25 10:31:58;;;;;;;;;4.75;3.00;;;;;;;;5087988;27;45358;-75
2023/10/25 10:34:37;;;;;;;;;4.67;4.67;;;;;;;;5079482;28;45338;-76
2023/10/25 10:37:09;;;;;;;;;5.00;4.00;;;;;;;;5075333;28;45352;-75
2023/10/25 10:39:35;;;;;;;;;4.33;4.00;;;;;;;;5079021;28;45294;-75
2023/10/25 10:42:01;;;;;;;;;3.00;3.00;;;;;;;;5078213;28;45226;-75
2023/10/25 10:44:27;;;;;;;;;4.00;4.00;;;;;;;;5079573;28;45141;-76
2023/10/25 10:46:57;;;;;;;;;2.00;2.00;;;;;;;;5079556;28;45164;-75
2023/10/25 10:49:27;;;;;;;;;2.50;2.25;;;;;;;;5079524;28;46392;-73
2023/10/25 10:51:54;;;;;;;;;2.00;2.00;;;;;;;;5067658;28;45238;-75
2023/10/25 10:54:20;;;;;;;;;0.50;0.50;;;;;;;;5068863;28;45329;-75
2023/10/25 10:56:45;;;;;;;;;0.25;0.25;;;;;;;;5061388;28;45374;-75
2023/10/25 10:59:10;;;;;;;;;0.00;0.00;;;;;;;;5065610;28;47436;-76
2023/10/25 11:01:35;;;;;;;;;1.00;1.00;;;;;;;;5067515;28;45397;-76
2023/10/25 11:04:00;;;;;;;;;0.00;0.00;;;;;;;;5066309;28;45402;-75
2023/10/25 11:06:26;;;;;;;;;1.00;1.00;;;;;;;;5069100;28;45336;-76
2023/10/25 11:08:52;;;;;;;;;1.00;1.00;;;;;;;;5067337;28;45322;-75
2023/10/25 11:11:20;;;;;;;;;1.00;1.00;;;;;;;;5063975;28;45439;-76
2023/10/25 11:13:46;;;;;;;;;3.00;3.00;;;;;;;;5067622;28;45295;-77
2023/10/25 11:16:12;;;;;;;;;2.50;2.50;;;;;;;;5065672;28;46089;-77
2023/10/25 11:18:37;;;;;;;;;2.00;2.00;;;;;;;;5070137;28;48075;-76
2023/10/25 11:21:03;;;;;;;;;2.75;2.75;;;;;;;;5072886;28;45204;-76
2023/10/25 11:23:28;;;;;;;;;3.00;3.00;;;;;;;;5069825;28;45446;-76
2023/10/25 11:25:54;;;;;;;;;11.67;10.67;;;;;;;;5070787;28;45484;-76
2023/10/25 11:28:20;;;;;;;;;9.67;9.00;;;;;;;;5071623;27;46483;-76
2023/10/25 11:30:45;;;;;;;;;12.33;11.33;;;;;;;;5073585;27;45363;-75
2023/10/25 11:33:11;;;;;;;;;8.33;8.33;;;;;;;;5062537;28;45418;-76
2023/10/25 11:35:40;;;;;;;;;12.67;12.67;;;;;;;;5066837;27;47171;-76
2023/10/25 11:38:05;;;;;;;;;5.00;5.00;;;;;;;;5078506;28;47242;-75
2023/10/25 11:40:35;;;;;;;;;8.67;8.00;;;;;;;;5072257;27;45615;-76
2023/10/25 11:43:00;;;;;;;;;7.67;7.33;;;;;;;;5085406;28;45731;-77
2023/10/25 11:45:25;;;;;;;;;5.00;5.00;;;;;;;;5089999;27;45360;-77
2023/10/25 11:47:54;;;;;;;;;3.67;3.00;;;;;;;;5083342;28;47088;-76
2023/10/25 11:50:19;;;;;;;;;13.00;13.00;;;;;;;;5082746;27;45338;-77
2023/10/25 11:52:44;;;;;;;;;6.67;6.67;;;;;;;;5074394;28;45296;-77
2023/10/25 11:55:10;;;;;;;;;4.00;4.00;;;;;;;;5087184;27;45393;-77
2023/10/25 11:57:35;;;;;;;;;7.33;7.33;;;;;;;;5067840;28;45350;-75
2023/10/25 12:00:00;;;;;;;;;5.33;5.33;;;;;;;;5085860;28;45241;-77
2023/10/25 12:02:26;;;;;;;;;4.00;4.00;;;;;;;;5085272;28;45217;-77
2023/10/25 12:04:52;;;;;;;;;6.00;6.00;;;;;;;;5083517;28;45347;-76
2023/10/25 12:07:19;;;;;;;;;7.00;5.00;;;;;;;;5086763;28;45254;-76
2023/10/25 12:09:45;;;;;;;;;5.00;5.00;;;;;;;;5081195;28;45401;-76
2023/10/25 12:12:10;;;;;;;;;6.33;6.33;;;;;;;;5079313;28;45383;-76
2023/10/25 12:14:35;;;;;;;;;7.33;6.00;;;;;;;;5080079;28;45837;-76
2023/10/25 12:17:01;;;;;;;;;4.67;4.33;;;;;;;;5080388;28;46614;-76
2023/10/25 12:19:26;;;;;;;;;6.00;6.00;;;;;;;;5080534;28;45336;-76
2023/10/25 12:21:56;;;;;;;;;4.67;4.67;;;;;;;;5078879;28;45428;-76
2023/10/25 12:24:30;;;;;;;;;4.00;3.00;;;;;;;;5080707;28;45363;-75
2023/10/25 12:26:55;;;;;;;;;3.67;3.67;;;;;;;;5081048;28;45390;-74
2023/10/25 12:29:20;;;;;;;;;2.00;2.00;;;;;;;;5087558;27;46207;-75
2023/10/25 12:31:45;;;;;;;;;4.00;4.00;;;;;;;;5084917;27;45216;-75
2023/10/25 12:34:11;;;;;;;;;6.33;6.33;;;;;;;;5081634;28;45294;-75
2023/10/25 12:36:36;;;;;;;;;4.00;4.00;;;;;;;;5080178;28;47135;-74
2023/10/25 12:39:02;;;;;;;;;4.67;4.00;;;;;;;;5081275;28;45239;-74
2023/10/25 12:41:27;;;;;;;;;2.00;2.00;;;;;;;;5081570;28;45397;-73
2023/10/25 12:43:52;;;;;;;;;2.00;2.00;;;;;;;;5081155;28;45218;-73
2023/10/25 12:46:17;;;;;;;;;1.50;1.50;;;;;;;;5081027;27;46560;-75
2023/10/25 12:48:42;;;;;;;;;1.00;1.00;;;;;;;;5082043;27;45220;-75
2023/10/25 12:51:08;;;;;;;;;0.50;0.50;;;;;;;;5082784;28;45333;-75
2023/10/25 12:53:33;;;;;;;;;1.00;1.00;;;;;;;;5081222;27;45563;-75
2023/10/25 12:55:58;;;;;;;;;3.00;3.00;;;;;;;;5075775;28;47347;-75
2023/10/25 12:58:23;;;;;;;;;1.00;1.00;;;;;;;;5068905;28;45342;-74
2023/10/25 13:00:48;;;;;;;;;0.00;0.00;;;;;;;;5080703;28;45293;-75
2023/10/25 13:03:14;;;;;;;;;1.00;1.00;;;;;;;;5080704;28;45294;-74
2023/10/25 13:05:39;;;;;;;;;2.25;2.25;;;;;;;;5080250;27;45469;-75
2023/10/25 13:08:04;;;;;;;;;1.00;1.00;;;;;;;;5080539;28;45291;-74
2023/10/25 13:10:29;;;;;;;;;2.50;1.50;;;;;;;;5080462;28;45553;-74
2023/10/25 13:12:55;;;;;;;;;1.00;1.00;;;;;;;;5080547;28;45499;-74
2023/10/25 13:15:20;;;;;;;;;2.00;2.00;;;;;;;;5080208;28;45370;-77
2023/10/25 13:17:45;;;;;;;;;2.25;0.75;;;;;;;;5070506;28;45507;-76
2023/10/25 13:20:12;;;;;;;;;1.50;1.50;;;;;;;;5080444;28;45363;-76
2023/10/25 13:22:37;;;;;;;;;1.50;1.50;;;;;;;;5080357;28;45450;-74
2023/10/25 13:25:03;;;;;;;;;1.00;1.00;;;;;;;;5078930;28;47909;-75
2023/10/25 13:27:28;;;;;;;;;1.75;1.75;;;;;;;;5080386;28;45149;-75
2023/10/25 13:29:55;;;;;;;;;2.00;1.25;;;;;;;;5088152;27;45408;-75
2023/10/25 13:32:21;;;;;;;;;1.00;1.00;;;;;;;;5080398;28;45480;-75
2023/10/25 13:34:46;;;;;;;;;2.00;2.00;;;;;;;;5079900;28;46035;-75
2023/10/25 13:37:11;;;;;;;;;0.75;0.75;;;;;;;;5080155;27;45173;-75
2023/10/25 13:39:36;;;;;;;;;1.50;1.00;;;;;;;;5066602;28;45392;-75
2023/10/25 13:42:01;;;;;;;;;2.25;1.50;;;;;;;;5079972;28;45224;-75
2023/10/25 13:44:27;;;;;;;;;2.00;2.00;;;;;;;;5078016;28;48759;-75
2023/10/25 13:46:52;;;;;;;;;0.00;0.00;;;;;;;;5074432;28;45300;-75
2023/10/25 13:49:17;;;;;;;;;1.00;1.00;;;;;;;;5078579;28;45215;-75
2023/10/25 13:51:42;;;;;;;;;2.25;1.00;;;;;;;;5078444;28;47104;-75
2023/10/25 13:54:08;;;;;;;;;4.00;4.00;;;;;;;;5078526;28;47013;-74
2023/10/25 13:56:33;;;;;;;;;5.33;5.33;;;;;;;;5079486;28;45221;-75
2023/10/25 13:58:59;;;;;;;;;6.00;4.75;;;;;;;;5079871;28;45265;-76
2023/10/25 14:01:24;;;;;;;;;2.25;2.25;;;;;;;;5079184;27;45431;-75
2023/10/25 14:03:49;;;;;;;;;1.25;1.25;;;;;;;;5079662;28;46399;-75
2023/10/25 14:06:15;;;;;;;;;0.75;0.00;;;;;;;;5079434;27;45717;-76
2023/10/25 14:08:40;;;;;;;;;0.50;0.50;;;;;;;;5080011;27;45462;-75
2023/10/25 14:11:06;;;;;;;;;1.00;1.00;;;;;;;;5079369;28;45417;-76
2023/10/25 14:13:31;;;;;;;;;2.00;2.00;;;;;;;;5067964;27;46066;-76
2023/10/25 14:15:56;;;;;;;;;1.75;1.75;;;;;;;;5072221;28;45372;-76
2023/10/25 14:18:21;;;;;;;;;4.00;4.00;;;;;;;;5068359;28;45402;-76
2023/10/25 14:20:47;;;;;;;;;2.00;2.00;;;;;;;;5061829;28;45647;-75
2023/10/25 14:23:12;;;;;;;;;2.75;2.00;;;;;;;;5062794;28;45555;-77
2023/10/25 14:25:39;;;;;;;;;3.25;3.25;;;;;;;;5069132;28;45488;-76
2023/10/25 14:28:06;;;;;;;;;2.25;2.25;;;;;;;;5066940;28;45477;-76
2023/10/25 14:30:35;;;;;;;;;4.50;4.50;;;;;;;;5069812;27;45390;-75
2023/10/25 14:33:01;;;;;;;;;5.33;5.33;;;;;;;;5070327;28;45400;-76
2023/10/25 14:35:26;;;;;;;;;6.00;6.00;;;;;;;;5078853;28;45504;-76